createdAt,value
2018-03-25T00:02:12.929Z,84.90
2018-03-25T00:04:40.466Z,84.80
2018-03-25T00:07:08.009Z,85.20
2018-03-25T00:09:35.533Z,84.80
2018-03-25T00:12:03.065Z,85.20
2018-03-25T00:14:30.580Z,85.60
2018-03-25T00:16:58.132Z,85.60
2018-03-25T00:19:25.666Z,85.90
2018-03-25T00:21:53.200Z,85.70
2018-03-25T00:24:20.716Z,85.70
2018-03-25T00:26:48.242Z,85.80
2018-03-25T00:29:15.791Z,85.30
2018-03-25T00:31:43.330Z,85.20
2018-03-25T00:34:10.874Z,85.30
2018-03-25T00:36:38.398Z,85.40
2018-03-25T00:39:05.945Z,85.50
2018-03-25T00:41:33.482Z,85.60
2018-03-25T00:44:01.025Z,85.40
2018-03-25T00:46:29.310Z,85.70
2018-03-25T00:48:57.614Z,85.80
2018-03-25T00:51:25.176Z,85.70
2018-03-25T00:53:52.714Z,85.70
2018-03-25T00:56:20.234Z,85.20
2018-03-25T00:58:47.773Z,85.30
2018-03-25T01:01:15.306Z,85.90
2018-03-25T01:03:42.843Z,86.00
2018-03-25T01:06:10.377Z,86.10
2018-03-25T01:08:38.698Z,86.60
2018-03-25T01:11:06.279Z,86.60
2018-03-25T01:13:33.824Z,86.10
2018-03-25T01:16:09.982Z,86.20
2018-03-25T01:18:37.538Z,86.40
2018-03-25T01:21:05.069Z,86.20
2018-03-25T01:23:32.616Z,86.30
2018-03-25T01:26:00.137Z,86.30
2018-03-25T01:28:27.678Z,86.50
2018-03-25T01:30:55.209Z,86.50
2018-03-25T01:33:22.753Z,86.70
2018-03-25T01:35:50.282Z,86.60
2018-03-25T01:38:17.833Z,86.40
2018-03-25T01:40:45.362Z,86.30
2018-03-25T01:43:12.914Z,86.50
2018-03-25T01:45:40.470Z,86.60
2018-03-25T01:48:08.001Z,86.50
2018-03-25T01:50:35.541Z,86.50
2018-03-25T01:53:03.063Z,86.40
2018-03-25T01:55:30.606Z,86.20
2018-03-25T01:57:58.914Z,86.30
2018-03-25T02:00:26.448Z,86.20
2018-03-25T02:02:53.976Z,86.20
2018-03-25T02:05:21.521Z,85.90
2018-03-25T02:07:49.041Z,85.80
2018-03-25T02:10:16.594Z,85.90
2018-03-25T02:12:44.125Z,85.60
2018-03-25T02:15:11.666Z,85.70
2018-03-25T02:17:39.200Z,85.90
2018-03-25T02:20:06.738Z,85.80
2018-03-25T02:22:35.025Z,86.70
2018-03-25T02:25:03.327Z,86.40
2018-03-25T02:27:30.863Z,86.30
2018-03-25T02:29:58.401Z,86.10
2018-03-25T02:32:26.695Z,86.30
2018-03-25T02:34:54.240Z,86.10
2018-03-25T02:37:22.528Z,86.80
2018-03-25T02:39:50.110Z,86.70
2018-03-25T02:42:17.635Z,87.10
2018-03-25T02:44:45.946Z,86.80
2018-03-25T02:47:13.481Z,86.80
2018-03-25T02:49:41.035Z,86.70
2018-03-25T02:52:08.569Z,86.40
2018-03-25T02:54:36.895Z,86.10
2018-03-25T02:57:04.466Z,86.00
2018-03-25T02:59:31.995Z,86.10
2018-03-25T03:01:59.537Z,86.10
2018-03-25T03:04:27.074Z,86.00
2018-03-25T03:06:55.400Z,85.70
2018-03-25T03:09:22.926Z,85.70
2018-03-25T03:11:50.461Z,85.50
2018-03-25T03:14:17.982Z,85.60
2018-03-25T03:16:45.535Z,85.90
2018-03-25T03:19:13.061Z,86.30
2018-03-25T03:21:40.613Z,86.40
2018-03-25T03:24:08.249Z,87.20
2018-03-25T03:26:35.797Z,86.20
2018-03-25T03:29:03.317Z,86.00
2018-03-25T03:31:30.855Z,85.80
2018-03-25T03:33:58.389Z,85.80
2018-03-25T03:36:26.699Z,86.20
2018-03-25T03:38:54.231Z,86.20
2018-03-25T03:41:22.580Z,86.60
2018-03-25T03:43:50.108Z,86.50
2018-03-25T03:46:17.652Z,86.10
2018-03-25T03:48:45.186Z,85.60
2018-03-25T03:51:12.735Z,85.50
2018-03-25T03:53:41.029Z,85.50
2018-03-25T03:56:08.579Z,85.50
2018-03-25T03:58:36.134Z,85.40
2018-03-25T04:01:03.677Z,85.50
2018-03-25T04:03:31.201Z,85.60
2018-03-25T04:05:59.513Z,85.70
2018-03-25T04:08:27.051Z,85.70
2018-03-25T04:10:54.624Z,85.80
2018-03-25T04:13:22.152Z,86.10
2018-03-25T04:15:49.683Z,86.10
2018-03-25T04:18:17.221Z,86.00
2018-03-25T04:20:44.757Z,85.90
2018-03-25T04:23:12.321Z,85.20
2018-03-25T04:25:39.853Z,85.20
2018-03-25T04:28:07.391Z,85.90
2018-03-25T04:30:34.933Z,85.70
2018-03-25T04:33:02.500Z,85.90
2018-03-25T04:35:30.029Z,86.00
2018-03-25T04:37:57.579Z,86.00
2018-03-25T04:40:25.105Z,86.10
2018-03-25T04:42:52.637Z,86.30
2018-03-25T04:45:20.162Z,86.30
2018-03-25T04:47:47.706Z,86.40
2018-03-25T04:50:15.230Z,86.30
2018-03-25T04:52:42.773Z,85.70
2018-03-25T04:55:10.306Z,86.20
2018-03-25T04:57:37.846Z,85.60
2018-03-25T05:00:05.374Z,86.00
2018-03-25T05:02:32.931Z,85.80
2018-03-25T05:05:01.225Z,85.30
2018-03-25T05:07:28.757Z,85.20
2018-03-25T05:09:57.053Z,84.20
2018-03-25T05:12:24.595Z,84.10
2018-03-25T05:14:52.883Z,84.60
2018-03-25T05:17:20.450Z,84.60
2018-03-25T05:19:47.975Z,84.60
2018-03-25T05:22:16.299Z,84.90
2018-03-25T05:24:43.825Z,85.00
2018-03-25T05:27:12.133Z,84.50
2018-03-25T05:29:39.667Z,84.40
2018-03-25T05:32:07.193Z,84.20
2018-03-25T05:34:34.734Z,84.10
2018-03-25T05:37:02.259Z,84.00
2018-03-25T05:39:29.819Z,83.70
2018-03-25T05:41:57.351Z,83.10
2018-03-25T05:44:24.900Z,82.40
2018-03-25T05:46:53.190Z,82.00
2018-03-25T05:49:20.729Z,82.00
2018-03-25T05:51:49.026Z,81.20
2018-03-25T05:54:16.562Z,81.20
2018-03-25T05:56:44.881Z,80.10
2018-03-25T05:59:12.417Z,80.10
2018-03-25T06:01:39.938Z,79.90
2018-03-25T06:04:07.478Z,79.40
2018-03-25T06:06:35.010Z,78.50
2018-03-25T06:09:02.553Z,78.60
2018-03-25T06:11:30.094Z,78.30
2018-03-25T06:13:57.634Z,77.80
2018-03-25T06:16:25.170Z,77.30
2018-03-25T06:18:52.713Z,77.10
2018-03-25T06:21:20.245Z,77.30
2018-03-25T06:23:47.789Z,77.20
2018-03-25T06:26:15.309Z,76.60
2018-03-25T06:28:42.844Z,75.70
2018-03-25T06:31:10.424Z,75.30
2018-03-25T06:33:37.966Z,74.50
2018-03-25T06:36:05.485Z,74.00
2018-03-25T06:38:33.055Z,73.40
2018-03-25T06:41:00.565Z,73.00
2018-03-25T06:43:28.869Z,71.30
2018-03-25T06:45:56.419Z,71.30
2018-03-25T06:48:23.963Z,70.30
2018-03-25T06:50:52.265Z,66.40
2018-03-25T06:53:19.777Z,66.40
2018-03-25T06:55:47.304Z,63.50
2018-03-25T06:58:14.833Z,61.70
2018-03-25T07:00:42.401Z,60.10
2018-03-25T07:03:09.919Z,57.50
2018-03-25T07:05:38.235Z,48.40
2018-03-25T07:08:05.778Z,48.40
2018-03-25T07:10:33.318Z,45.90
2018-03-25T07:13:00.844Z,47.30
2018-03-25T07:15:28.390Z,49.40
2018-03-25T07:17:55.905Z,48.80
2018-03-25T07:20:23.442Z,46.70
2018-03-25T07:22:51.212Z,44.90
2018-03-25T07:25:18.805Z,43.50
2018-03-25T07:27:46.330Z,40.60
2018-03-25T07:30:14.650Z,33.00
2018-03-25T07:32:42.199Z,32.90
2018-03-25T07:35:09.748Z,30.20
2018-03-25T07:37:37.290Z,28.80
2018-03-25T07:40:04.832Z,28.30
2018-03-25T07:42:33.127Z,27.00
2018-03-25T07:45:00.711Z,27.00
2018-03-25T07:47:28.239Z,26.80
2018-03-25T07:49:55.831Z,25.20
2018-03-25T07:52:23.335Z,24.40
2018-03-25T07:54:52.531Z,24.90
2018-03-25T07:57:20.827Z,25.10
2018-03-25T07:59:48.382Z,25.10
2018-03-25T08:02:15.923Z,25.00
2018-03-25T08:04:44.254Z,24.20
2018-03-25T08:07:11.794Z,24.10
2018-03-25T08:09:39.354Z,24.30
2018-03-25T08:12:06.950Z,23.50
2018-03-25T08:14:34.515Z,23.60
2018-03-25T08:17:02.088Z,23.00
2018-03-25T08:19:29.634Z,22.50
2018-03-25T08:21:57.974Z,23.20
2018-03-25T08:24:25.503Z,23.20
2018-03-25T08:26:53.075Z,23.20
2018-03-25T08:29:20.610Z,23.20
2018-03-25T08:31:48.149Z,23.00
2018-03-25T08:34:16.993Z,22.20
2018-03-25T08:36:44.579Z,22.20
2018-03-25T08:39:12.111Z,21.80
2018-03-25T08:41:39.683Z,22.50
2018-03-25T08:44:07.223Z,22.00
2018-03-25T08:46:34.808Z,21.80
2018-03-25T08:49:02.321Z,21.30
2018-03-25T08:51:29.865Z,22.60
2018-03-25T08:53:57.401Z,23.10
2018-03-25T08:56:25.701Z,22.50
2018-03-25T08:58:53.225Z,22.50
2018-03-25T09:01:21.539Z,21.90
2018-03-25T09:03:49.850Z,22.30
2018-03-25T09:06:17.389Z,22.30
2018-03-25T09:08:44.913Z,22.70
2018-03-25T09:11:12.462Z,22.80
2018-03-25T09:13:40.006Z,23.40
2018-03-25T09:16:07.562Z,23.70
2018-03-25T09:18:35.874Z,23.50
2018-03-25T09:21:03.401Z,23.40
2018-03-25T09:23:31.718Z,23.30
2018-03-25T09:25:59.278Z,23.30
2018-03-25T09:28:26.809Z,22.80
2018-03-25T09:30:54.337Z,22.70
2018-03-25T09:33:21.881Z,22.70
2018-03-25T09:35:49.411Z,22.50
2018-03-25T09:38:16.959Z,22.50
2018-03-25T09:40:44.485Z,22.00
2018-03-25T09:43:12.025Z,22.60
2018-03-25T09:45:39.550Z,22.00
2018-03-25T09:48:07.100Z,22.90
2018-03-25T09:50:34.626Z,24.00
2018-03-25T09:53:02.175Z,23.90
2018-03-25T09:55:30.466Z,23.40
2018-03-25T09:57:58.963Z,23.40
2018-03-25T10:00:30.286Z,24.00
2018-03-25T10:02:59.418Z,24.00
2018-03-25T10:05:26.977Z,24.50
2018-03-25T10:07:54.533Z,25.30
2018-03-25T10:10:22.078Z,28.20
2018-03-25T10:12:49.626Z,29.30
2018-03-25T10:15:17.150Z,31.40
2018-03-25T10:17:45.517Z,33.60
2018-03-25T10:20:13.022Z,33.50
2018-03-25T10:22:40.562Z,34.90
2018-03-25T10:25:08.084Z,34.70
2018-03-25T10:27:36.408Z,34.30
2018-03-25T10:30:03.947Z,34.30
2018-03-25T10:32:31.491Z,34.60
2018-03-25T10:34:59.021Z,34.60
2018-03-25T10:37:28.359Z,32.30
2018-03-25T10:39:55.906Z,32.90
2018-03-25T10:42:23.442Z,35.70
2018-03-25T10:44:51.000Z,34.50
2018-03-25T10:47:18.530Z,34.30
2018-03-25T10:49:46.838Z,35.60
2018-03-25T10:52:14.361Z,35.50
2018-03-25T10:54:41.909Z,35.80
2018-03-25T10:57:09.450Z,36.70
2018-03-25T10:59:37.262Z,36.40
2018-03-25T11:02:04.798Z,36.30
2018-03-25T11:04:33.142Z,36.10
2018-03-25T11:07:00.667Z,35.50
2018-03-25T11:09:28.214Z,34.50
2018-03-25T11:11:55.774Z,33.50
2018-03-25T11:14:23.318Z,36.30
2018-03-25T11:16:50.850Z,35.00
2018-03-25T11:19:18.386Z,33.80
2018-03-25T11:21:45.923Z,34.50
2018-03-25T11:24:14.617Z,34.40
2018-03-25T11:26:42.158Z,34.30
2018-03-25T11:29:10.477Z,35.70
2018-03-25T11:31:38.001Z,35.80
2018-03-25T11:34:05.550Z,34.50
2018-03-25T11:36:33.069Z,34.90
2018-03-25T11:39:00.610Z,34.40
2018-03-25T11:41:28.129Z,33.00
2018-03-25T11:43:56.452Z,33.80
2018-03-25T11:46:23.983Z,33.80
2018-03-25T11:48:51.527Z,32.70
2018-03-25T11:51:19.822Z,34.90
2018-03-25T11:53:47.361Z,34.80
2018-03-25T11:56:15.605Z,34.40
2018-03-25T11:58:43.122Z,33.40
2018-03-25T12:01:10.670Z,33.60
2018-03-25T12:03:38.206Z,34.20
2018-03-25T12:06:06.519Z,31.60
2018-03-25T12:08:34.041Z,31.50
2018-03-25T12:11:02.362Z,33.80
2018-03-25T12:13:29.906Z,33.80
2018-03-25T12:15:57.443Z,35.50
2018-03-25T12:18:24.987Z,34.70
2018-03-25T12:20:52.536Z,33.80
2018-03-25T12:23:20.826Z,32.40
2018-03-25T12:25:48.373Z,32.40
2018-03-25T12:28:16.662Z,33.30
2018-03-25T12:30:44.201Z,33.20
2018-03-25T12:33:12.550Z,34.30
2018-03-25T12:35:40.282Z,34.30
2018-03-25T12:38:08.581Z,34.30
2018-03-25T12:40:36.126Z,34.30
2018-03-25T12:43:03.713Z,35.30
2018-03-25T12:45:31.262Z,36.90
2018-03-25T12:47:58.802Z,32.90
2018-03-25T12:50:26.336Z,33.40
2018-03-25T12:52:53.872Z,32.00
2018-03-25T12:55:21.422Z,33.20
2018-03-25T12:57:48.949Z,33.40
2018-03-25T13:00:16.513Z,31.90
2018-03-25T13:02:44.089Z,33.00
2018-03-25T13:05:12.406Z,33.50
2018-03-25T13:07:39.939Z,33.30
2018-03-25T13:10:07.498Z,33.70
2018-03-25T13:12:35.797Z,34.40
2018-03-25T13:15:03.348Z,34.40
2018-03-25T13:17:30.874Z,35.20
2018-03-25T13:19:58.470Z,36.00
2018-03-25T13:22:26.007Z,35.10
2018-03-25T13:24:53.555Z,35.00
2018-03-25T13:27:21.150Z,34.00
2018-03-25T13:29:48.688Z,32.80
2018-03-25T13:32:16.240Z,32.20
2018-03-25T13:34:43.801Z,33.90
2018-03-25T13:37:12.110Z,32.40
2018-03-25T13:39:39.639Z,32.30
2018-03-25T13:42:07.186Z,34.00
2018-03-25T13:44:34.719Z,33.50
2018-03-25T13:47:02.257Z,34.50
2018-03-25T13:49:29.788Z,35.10
2018-03-25T13:51:57.336Z,35.20
2018-03-25T13:54:24.879Z,35.20
2018-03-25T13:56:52.422Z,35.50
2018-03-25T13:59:20.714Z,35.90
2018-03-25T14:01:48.265Z,35.90
2018-03-25T14:04:15.789Z,35.20
2018-03-25T14:06:44.247Z,35.40
2018-03-25T14:09:11.779Z,34.70
2018-03-25T14:11:39.338Z,34.50
2018-03-25T14:14:06.874Z,35.90
2018-03-25T14:16:34.434Z,36.40
2018-03-25T14:19:01.974Z,36.50
2018-03-25T14:21:29.521Z,38.10
2018-03-25T14:23:57.054Z,36.80
2018-03-25T14:26:24.603Z,36.40
2018-03-25T14:28:52.132Z,35.80
2018-03-25T14:31:19.687Z,35.30
2018-03-25T14:33:47.208Z,34.80
2018-03-25T14:36:14.778Z,35.30
2018-03-25T14:38:42.310Z,34.30
2018-03-25T14:41:09.855Z,35.60
2018-03-25T14:43:37.387Z,35.60
2018-03-25T14:46:04.936Z,34.40
2018-03-25T14:48:32.471Z,35.00
2018-03-25T14:51:00.905Z,35.60
2018-03-25T14:53:28.444Z,35.50
2018-03-25T14:55:55.978Z,34.80
2018-03-25T14:58:23.521Z,34.70
2018-03-25T15:00:51.814Z,35.00
2018-03-25T15:03:19.353Z,35.00
2018-03-25T15:05:47.648Z,35.60
2018-03-25T15:08:15.194Z,35.60
2018-03-25T15:10:43.495Z,34.70
2018-03-25T15:13:11.042Z,34.70
2018-03-25T15:15:38.570Z,34.60
2018-03-25T15:18:06.899Z,35.70
2018-03-25T15:20:34.426Z,35.70
2018-03-25T15:23:01.966Z,37.40
2018-03-25T15:25:29.497Z,36.70
2018-03-25T15:27:57.046Z,37.50
2018-03-25T15:30:24.583Z,37.40
2018-03-25T15:32:52.131Z,37.30
2018-03-25T15:35:19.658Z,37.90
2018-03-25T15:37:47.963Z,38.90
2018-03-25T15:40:15.490Z,38.80
2018-03-25T15:42:43.799Z,39.10
2018-03-25T15:45:11.325Z,39.00
2018-03-25T15:47:39.630Z,38.80
2018-03-25T15:50:07.342Z,38.80
2018-03-25T15:52:34.905Z,39.30
2018-03-25T15:55:02.576Z,38.90
2018-03-25T15:57:30.132Z,39.50
2018-03-25T15:59:58.424Z,39.20
2018-03-25T16:02:25.974Z,39.20
2018-03-25T16:04:54.305Z,39.00
2018-03-25T16:07:21.855Z,39.00
2018-03-25T16:09:49.396Z,39.00
2018-03-25T16:12:16.938Z,39.40
2018-03-25T16:14:44.460Z,40.10
2018-03-25T16:17:12.005Z,39.20
2018-03-25T16:19:39.526Z,39.10
2018-03-25T16:22:07.068Z,38.90
2018-03-25T16:24:34.589Z,39.00
2018-03-25T16:27:02.130Z,39.70
2018-03-25T16:29:29.757Z,40.00
2018-03-25T16:32:02.735Z,40.70
2018-03-25T16:34:30.458Z,40.90
2018-03-25T16:36:58.031Z,40.50
2018-03-25T16:39:26.327Z,41.20
2018-03-25T16:41:53.856Z,41.20
2018-03-25T16:44:22.170Z,40.70
2018-03-25T16:46:49.709Z,40.70
2018-03-25T16:49:17.758Z,40.80
2018-03-25T16:51:46.061Z,42.60
2018-03-25T16:54:13.620Z,42.40
2018-03-25T16:56:41.147Z,43.60
2018-03-25T16:59:09.458Z,45.90
2018-03-25T17:01:37.005Z,45.90
2018-03-25T17:04:04.551Z,46.70
2018-03-25T17:06:32.080Z,47.50
2018-03-25T17:08:59.613Z,48.10
2018-03-25T17:11:27.138Z,48.60
2018-03-25T17:13:54.674Z,49.50
2018-03-25T17:16:22.192Z,50.40
2018-03-25T17:18:49.737Z,51.30
2018-03-25T17:21:17.263Z,52.00
2018-03-25T17:23:44.798Z,54.20
2018-03-25T17:26:12.318Z,54.20
2018-03-25T17:28:39.861Z,54.50
2018-03-25T17:31:07.382Z,55.00
2018-03-25T17:33:34.918Z,54.50
2018-03-25T17:36:02.440Z,55.30
2018-03-25T17:38:29.982Z,56.50
2018-03-25T17:40:57.505Z,56.80
2018-03-25T17:43:25.041Z,55.00
2018-03-25T17:45:52.578Z,54.70
2018-03-25T17:48:20.141Z,56.60
2018-03-25T17:50:47.663Z,58.80
2018-03-25T17:53:15.182Z,58.40
2018-03-25T17:55:42.769Z,59.40
2018-03-25T17:58:10.302Z,58.90
2018-03-25T18:00:38.603Z,58.70
2018-03-25T18:03:06.127Z,58.70
2018-03-25T18:05:33.674Z,58.40
2018-03-25T18:08:01.202Z,60.10
2018-03-25T18:10:28.755Z,58.50
2018-03-25T18:12:56.270Z,58.60
2018-03-25T18:15:24.585Z,59.60
2018-03-25T18:17:52.112Z,59.60
2018-03-25T18:20:20.426Z,62.40
2018-03-25T18:22:47.947Z,62.40
2018-03-25T18:25:15.498Z,64.70
2018-03-25T18:27:43.026Z,63.30
2018-03-25T18:30:10.561Z,65.20
2018-03-25T18:32:38.092Z,65.70
2018-03-25T18:35:05.638Z,65.50
2018-03-25T18:37:33.179Z,64.70
2018-03-25T18:40:01.486Z,64.10
2018-03-25T18:42:29.010Z,64.00
2018-03-25T18:44:57.308Z,61.00
2018-03-25T18:47:24.854Z,61.00
2018-03-25T18:49:53.170Z,62.60
2018-03-25T18:52:20.725Z,62.50
2018-03-25T18:54:48.246Z,64.40
2018-03-25T18:57:16.562Z,66.40
2018-03-25T18:59:44.081Z,66.40
2018-03-25T19:02:11.634Z,65.90
2018-03-25T19:04:39.154Z,65.70
2018-03-25T19:07:06.694Z,65.50
2018-03-25T19:09:34.217Z,65.20
2018-03-25T19:12:01.758Z,66.00
2018-03-25T19:14:29.305Z,65.90
2018-03-25T19:16:56.872Z,65.00
2018-03-25T19:19:25.184Z,64.80
2018-03-25T19:21:52.725Z,64.80
2018-03-25T19:24:20.274Z,64.20
2018-03-25T19:26:48.583Z,64.30
2018-03-25T19:29:16.528Z,64.30
2018-03-25T19:31:44.074Z,64.50
2018-03-25T19:34:12.359Z,64.30
2018-03-25T19:36:39.919Z,64.20
2018-03-25T19:39:07.442Z,63.90
2018-03-25T19:41:35.006Z,64.80
2018-03-25T19:44:03.316Z,65.90
2018-03-25T19:46:30.846Z,65.80
2018-03-25T19:48:59.158Z,65.20
2018-03-25T19:51:26.694Z,65.10
2018-03-25T19:53:54.998Z,63.80
2018-03-25T19:56:23.296Z,64.00
2018-03-25T19:58:50.834Z,64.00
2018-03-25T20:01:18.358Z,64.60
2018-03-25T20:03:45.894Z,65.30
2018-03-25T20:06:13.425Z,65.10
2018-03-25T20:08:40.965Z,65.90
2018-03-25T20:11:08.494Z,66.20
2018-03-25T20:13:36.043Z,66.10
2018-03-25T20:16:03.570Z,66.30
2018-03-25T20:18:31.119Z,66.90
2018-03-25T20:20:58.633Z,67.70
2018-03-25T20:23:26.179Z,68.50
2018-03-25T20:25:53.714Z,68.00
2018-03-25T20:28:21.246Z,68.10
2018-03-25T20:30:48.767Z,68.40
2018-03-25T20:33:16.332Z,69.40
2018-03-25T20:35:43.862Z,69.80
2018-03-25T20:38:11.407Z,70.30
2018-03-25T20:40:39.706Z,70.70
2018-03-25T20:43:07.254Z,70.60
2018-03-25T20:45:34.778Z,70.80
2018-03-25T20:48:02.335Z,70.40
2018-03-25T20:50:29.858Z,69.10
2018-03-25T20:52:57.412Z,69.30
2018-03-25T20:55:24.942Z,69.80
2018-03-25T20:57:52.495Z,70.10
2018-03-25T21:00:20.851Z,70.20
2018-03-25T21:02:48.395Z,70.20
2018-03-25T21:05:15.938Z,70.20
2018-03-25T21:07:43.473Z,70.10
2018-03-25T21:10:11.022Z,69.90
2018-03-25T21:12:38.546Z,70.70
2018-03-25T21:15:06.856Z,69.80
2018-03-25T21:17:34.394Z,69.70
2018-03-25T21:20:01.952Z,69.40
2018-03-25T21:22:29.479Z,68.80
2018-03-25T21:24:57.033Z,68.10
2018-03-25T21:27:24.553Z,68.60
2018-03-25T21:29:52.100Z,68.70
2018-03-25T21:32:19.626Z,68.40
2018-03-25T21:34:47.175Z,68.60
2018-03-25T21:37:14.706Z,68.30
2018-03-25T21:39:42.246Z,69.40
2018-03-25T21:42:09.781Z,69.10
2018-03-25T21:44:37.318Z,68.90
2018-03-25T21:47:05.643Z,70.10
2018-03-25T21:49:33.214Z,70.00
2018-03-25T21:52:00.753Z,69.80
2018-03-25T21:54:28.318Z,70.10
2018-03-25T21:56:55.851Z,69.80
2018-03-25T21:59:23.414Z,70.40
2018-03-25T22:01:50.969Z,70.40
2018-03-25T22:04:18.533Z,70.80
2018-03-25T22:06:46.065Z,70.50
2018-03-25T22:09:14.374Z,70.90
2018-03-25T22:11:42.136Z,70.90
2018-03-25T22:14:09.679Z,71.20
2018-03-25T22:16:37.224Z,71.40
2018-03-25T22:19:04.750Z,70.90
2018-03-25T22:21:32.298Z,70.50
2018-03-25T22:24:00.591Z,71.20
2018-03-25T22:26:28.902Z,71.20
2018-03-25T22:28:56.452Z,71.10
2018-03-25T22:31:24.002Z,71.20
2018-03-25T22:33:51.548Z,71.40
2018-03-25T22:36:19.106Z,70.60
2018-03-25T22:38:47.457Z,70.90
2018-03-25T22:41:14.996Z,70.80
2018-03-25T22:43:42.521Z,72.20
2018-03-25T22:46:10.091Z,71.20
2018-03-25T22:48:37.622Z,70.40
2018-03-25T22:51:05.191Z,69.80
2018-03-25T22:53:32.701Z,69.10
2018-03-25T22:56:00.237Z,68.60
2018-03-25T22:58:27.762Z,68.00
2018-03-25T23:00:55.302Z,67.90
2018-03-25T23:03:22.826Z,67.20
2018-03-25T23:05:50.357Z,66.80
2018-03-25T23:08:17.884Z,66.80
2018-03-25T23:10:45.427Z,66.70
2018-03-25T23:13:12.949Z,67.60
2018-03-25T23:15:40.481Z,67.20
2018-03-25T23:18:08.006Z,67.30
2018-03-25T23:20:36.312Z,67.80
2018-03-25T23:23:03.843Z,67.70
2018-03-25T23:25:32.150Z,67.90
2018-03-25T23:27:59.675Z,67.80
2018-03-25T23:30:27.986Z,68.00
2018-03-25T23:32:55.501Z,68.00
2018-03-25T23:35:23.790Z,67.90
2018-03-25T23:37:51.331Z,67.80
2018-03-25T23:40:19.627Z,68.20
2018-03-25T23:42:47.161Z,68.30
2018-03-25T23:45:15.454Z,68.10
2018-03-25T23:47:42.993Z,68.00
2018-03-25T23:50:11.279Z,68.60
2018-03-25T23:52:38.814Z,68.40
2018-03-25T23:55:06.342Z,69.00
2018-03-25T23:57:33.889Z,68.80
